Time;durP1;ratioP1;P1;durP2;ratioP2;P2;SDS_P1;SDS_P2;PMS_P1;PMS_P2;Temp;Humidity;BMP_temperature;BMP_pressure;BME280_temperature;BME280_humidity;BME280_pressure;Samples;Min_cycle;Max_cycle;Signal;HPM_P1;HPM_P2
2022/08/14 00:01:09;;;;;;;16.23;11.45;;;;;;;19.72;100.00;97855.72;1656584;83;28200;-87
2022/08/14 00:03:43;;;;;;;14.38;10.75;;;;;;;19.70;100.00;97856.89;1681197;82;28229;-86
2022/08/14 00:06:09;;;;;;;16.20;11.33;;;;;;;19.71;100.00;97852.73;1653081;84;28266;-89
2022/08/14 00:08:35;;;;;;;15.38;10.65;;;;;;;19.73;100.00;97855.22;1692060;81;28088;-89
2022/08/14 00:11:01;;;;;;;12.13;9.88;;;;;;;19.74;100.00;97851.57;1694517;81;28155;-89
2022/08/14 00:13:28;;;;;;;16.00;11.08;;;;;;;19.80;100.00;97849.53;1687043;83;28084;-89
2022/08/14 00:15:56;;;;;;;14.13;11.35;;;;;;;19.78;100.00;97850.20;1700851;82;28003;-86
2022/08/14 00:18:25;;;;;;;13.18;10.35;;;;;;;19.69;100.00;97846.80;1694403;83;28101;-87
2022/08/14 00:20:52;;;;;;;14.98;11.33;;;;;;;19.61;100.00;97846.85;1669399;83;28284;-88
2022/08/14 00:23:23;;;;;;;16.45;12.37;;;;;;;19.53;100.00;97843.75;1701520;82;28187;-91
2022/08/14 00:25:52;;;;;;;16.95;11.50;;;;;;;19.46;100.00;97836.69;1694912;83;28026;-87
2022/08/14 00:28:25;;;;;;;16.67;12.82;;;;;;;19.43;100.00;97831.69;1680480;82;28066;-88
2022/08/14 00:30:47;;;;;;;17.20;12.18;;;;;;;19.41;100.00;97831.06;1668357;83;28102;-86
2022/08/14 00:33:14;;;;;;;14.98;12.18;;;;;;;19.39;100.00;97827.75;1698794;81;28128;-87
2022/08/14 00:35:55;;;;;;;15.95;12.70;;;;;;;19.36;100.00;97817.00;1686742;82;28528;-89
2022/08/14 00:38:23;;;;;;;19.42;12.53;;;;;;;19.34;100.00;97817.67;1713728;81;28078;-89
2022/08/14 00:40:49;;;;;;;15.78;12.25;;;;;;;19.29;100.00;97816.05;1693771;81;28071;-87
2022/08/14 00:43:15;;;;;;;18.55;13.38;;;;;;;19.27;100.00;97810.58;1670530;83;28025;-86
2022/08/14 00:45:42;;;;;;;15.83;12.45;;;;;;;19.28;100.00;97809.09;1681294;83;28107;-88
2022/08/14 00:48:09;;;;;;;18.73;13.45;;;;;;;19.26;100.00;97812.41;1679272;83;28103;-89
2022/08/14 00:50:38;;;;;;;18.12;14.20;;;;;;;19.22;100.00;97806.64;1673550;83;28134;-86
2022/08/14 00:53:06;;;;;;;18.25;12.88;;;;;;;19.23;100.00;97806.97;1672942;81;28226;-89
2022/08/14 00:55:35;;;;;;;17.65;13.70;;;;;;;19.27;100.00;97811.91;1702302;81;28110;-86
2022/08/14 01:01:03;;;;;;;18.20;13.22;;;;;;;19.27;100.00;97817.21;1736912;80;28151;-89
2022/08/14 01:03:34;;;;;;;16.48;12.95;;;;;;;19.24;100.00;97815.76;1739743;80;28315;-86
2022/08/14 01:05:59;;;;;;;18.82;13.00;;;;;;;19.23;100.00;97812.27;1717844;80;28141;-88
2022/08/14 01:08:28;;;;;;;18.48;13.50;;;;;;;19.21;100.00;97803.66;1733232;80;28090;-90
2022/08/14 01:10:56;;;;;;;18.50;13.78;;;;;;;19.24;100.00;97809.12;1736179;80;28166;-86
2022/08/14 01:13:25;;;;;;;16.57;12.85;;;;;;;19.25;100.00;97807.30;1733548;80;28090;-89
2022/08/14 01:15:57;;;;;;;17.57;13.25;;;;;;;19.31;100.00;97814.55;1738476;80;28005;-86
2022/08/14 01:21:14;;;;;;;17.05;12.95;;;;;;;19.40;100.00;97812.16;1718135;80;28162;-87
2022/08/14 01:23:52;;;;;;;17.75;13.03;;;;;;;19.48;100.00;97814.27;1729825;80;28073;-89
2022/08/14 01:26:22;;;;;;;17.73;12.63;;;;;;;19.52;100.00;97808.95;1726722;80;28093;-86
2022/08/14 01:28:56;;;;;;;18.30;14.25;;;;;;;19.59;100.00;97812.52;1728447;80;28074;-89
2022/08/14 01:31:26;;;;;;;18.62;12.85;;;;;;;19.59;100.00;97813.84;1734918;80;28089;-89
2022/08/14 01:33:56;;;;;;;18.83;13.53;;;;;;;19.55;100.00;97803.77;1735873;80;28070;-88
2022/08/14 01:36:25;;;;;;;16.67;14.00;;;;;;;19.52;100.00;97810.27;1723503;81;28133;-86
2022/08/14 01:38:57;;;;;;;18.40;13.05;;;;;;;19.52;100.00;97808.95;1734360;80;28110;-89
2022/08/14 01:41:30;;;;;;;18.57;13.50;;;;;;;19.52;100.00;97805.46;1740896;80;28192;-88
2022/08/14 01:44:00;;;;;;;16.23;12.93;;;;;;;19.47;100.00;97807.33;1734882;80;28081;-89
2022/08/14 01:46:29;;;;;;;20.17;14.25;;;;;;;19.47;100.00;97809.98;1722504;80;28036;-90
2022/08/14 01:48:57;;;;;;;17.92;12.85;;;;;;;19.49;100.00;97811.11;1698279;81;28120;-89
2022/08/14 01:51:27;;;;;;;16.12;13.58;;;;;;;19.54;100.00;97807.41;1735632;80;28138;-90
2022/08/14 01:53:57;;;;;;;15.80;12.50;;;;;;;19.61;100.00;97806.53;1729197;80;28065;-87
2022/08/14 01:56:34;;;;;;;16.60;13.18;;;;;;;19.65;100.00;97805.66;1738569;80;28010;-91
2022/08/14 01:58:57;;;;;;;16.27;12.68;;;;;;;19.66;100.00;97806.48;1749508;80;28101;-87
2022/08/14 02:01:30;;;;;;;18.17;13.45;;;;;;;19.62;100.00;97797.57;1743257;80;28035;-89
2022/08/14 02:03:56;;;;;;;16.55;12.18;;;;;;;19.63;100.00;97802.38;1728822;80;28125;-88
2022/08/14 02:06:25;;;;;;;17.87;13.30;;;;;;;19.58;100.00;97802.89;1726337;81;28096;-89
2022/08/14 02:08:53;;;;;;;17.23;12.65;;;;;;;19.53;100.00;97796.47;1738529;80;28259;-87
2022/08/14 02:11:22;;;;;;;18.20;13.28;;;;;;;19.49;100.00;97797.34;1730978;80;28204;-87
2022/08/14 02:14:04;;;;;;;20.00;14.13;;;;;;;19.47;100.00;97799.36;1722698;80;28301;-90
2022/08/14 02:16:38;;;;;;;18.55;13.40;;;;;;;19.43;100.00;97796.69;1731606;80;28102;-90
2022/08/14 02:19:11;;;;;;;16.40;12.80;;;;;;;19.42;100.00;97792.91;1730253;80;28125;-89
2022/08/14 02:21:36;;;;;;;;;;;;;;;19.40;100.00;97791.75;1735994;80;28054;-88
2022/08/14 02:24:05;;;;;;;16.97;13.32;;;;;;;19.37;100.00;97792.59;1739324;80;20508;-89
2022/08/14 02:26:34;;;;;;;17.92;13.60;;;;;;;19.31;100.00;97787.49;1742155;80;28126;-89
2022/08/14 02:29:06;;;;;;;17.35;13.55;;;;;;;19.28;100.00;97791.84;1727378;80;28144;-88
2022/08/14 02:31:35;;;;;;;16.40;13.28;;;;;;;19.24;100.00;97794.53;1731298;80;28276;-90
2022/08/14 02:34:12;;;;;;;19.15;13.58;;;;;;;19.21;100.00;97797.52;1744809;80;28101;-87
2022/08/14 02:36:39;;;;;;;18.00;13.55;;;;;;;19.18;100.00;97795.23;1719598;80;28266;-89
2022/08/14 02:39:10;;;;;;;17.73;13.40;;;;;;;19.17;100.00;97791.75;1739500;80;28140;-86
2022/08/14 02:41:37;;;;;;;21.17;14.55;;;;;;;19.21;100.00;97793.05;1732718;81;28014;-89
2022/08/14 02:44:10;;;;;;;20.68;13.98;;;;;;;19.24;100.00;97790.55;1732007;80;28097;-86
2022/08/14 02:46:38;;;;;;;19.30;14.15;;;;;;;19.26;100.00;97789.03;1745118;80;28107;-89
2022/08/14 02:49:07;;;;;;;17.73;14.15;;;;;;;19.26;100.00;97789.03;1736445;80;28050;-90
2022/08/14 02:51:34;;;;;;;17.67;12.90;;;;;;;19.30;100.00;97788.52;1741961;80;28069;-90
2022/08/14 02:54:01;;;;;;;17.05;13.78;;;;;;;19.30;100.00;97785.87;1737574;80;28011;-87
2022/08/14 02:56:28;;;;;;;19.02;13.65;;;;;;;19.27;100.00;97780.90;1738859;80;28007;-90
2022/08/14 02:58:56;;;;;;;17.32;13.25;;;;;;;19.27;100.00;97779.57;1725226;80;28086;-87
2022/08/14 03:01:25;;;;;;;19.77;13.60;;;;;;;19.30;100.00;97779.73;1718331;82;28119;-89
2022/08/14 03:03:51;;;;;;;20.05;13.83;;;;;;;19.29;100.00;97778.91;1736628;80;28093;-88
2022/08/14 03:06:23;;;;;;;19.30;13.50;;;;;;;19.31;100.00;97778.20;1747338;80;28092;-88
2022/08/14 03:08:50;;;;;;;18.10;13.30;;;;;;;19.27;100.00;97780.90;1729960;81;28158;-88
2022/08/14 03:11:19;;;;;;;18.00;13.18;;;;;;;19.22;100.00;97780.61;1715722;81;28148;-89
2022/08/14 03:13:53;;;;;;;18.87;14.30;;;;;;;19.17;100.00;97780.31;1735480;80;28121;-89
2022/08/14 03:16:22;;;;;;;21.37;13.75;;;;;;;19.15;100.00;97783.14;1659347;83;28143;-89
2022/08/14 03:18:53;;;;;;;19.20;13.62;;;;;;;19.10;100.00;97785.99;1738017;80;28109;-86
2022/08/14 03:21:22;;;;;;;19.70;14.65;;;;;;;19.06;100.00;97788.19;1747357;80;28105;-89
2022/08/14 03:23:57;;;;;;;17.60;13.85;;;;;;;19.11;100.00;97785.83;1733324;80;28162;-88
2022/08/14 03:26:24;;;;;;;20.10;13.63;;;;;;;19.16;100.00;97787.45;1717575;80;28101;-89
2022/08/14 03:28:51;;;;;;;18.17;13.58;;;;;;;19.17;100.00;97779.81;1743960;80;28228;-86
2022/08/14 03:31:23;;;;;;;16.48;11.95;;;;;;;19.23;100.00;97785.75;1733319;80;28012;-90
2022/08/14 03:33:47;;;;;;;18.20;13.25;;;;;;;19.37;100.00;97778.83;1731330;81;28100;-89
2022/08/14 03:36:15;;;;;;;18.90;12.93;;;;;;;19.44;100.00;97775.79;1717906;80;28092;-88
2022/08/14 03:38:44;;;;;;;17.77;13.68;;;;;;;19.45;100.00;97777.48;1732519;80;28034;-89
2022/08/14 03:43:54;;;;;;;18.92;13.35;;;;;;;19.56;100.00;97774.89;1730102;81;28094;-86
2022/08/14 03:46:32;;;;;;;20.00;13.85;;;;;;;19.56;100.00;97776.22;1722876;80;28075;-86
2022/08/14 03:49:03;;;;;;;17.82;13.43;;;;;;;19.57;100.00;97780.03;1726373;81;28127;-89
2022/08/14 03:51:27;;;;;;;20.35;13.13;;;;;;;19.50;100.00;97780.92;1720277;80;28113;-89
2022/08/14 03:53:56;;;;;;;17.50;12.78;;;;;;;19.44;100.00;97777.61;1702973;81;28115;-90
2022/08/14 03:56:25;;;;;;;17.82;13.05;;;;;;;19.39;100.00;97778.16;1692544;82;28179;-88
2022/08/14 03:58:57;;;;;;;17.55;13.03;;;;;;;19.37;100.00;97774.02;1678501;83;28235;-89
2022/08/14 04:01:25;;;;;;;18.73;13.65;;;;;;;19.32;100.00;97777.20;1685628;83;28116;-89
2022/08/14 04:03:54;;;;;;;20.08;13.25;;;;;;;19.31;100.00;97780.86;1682088;83;28124;-89
2022/08/14 04:06:20;;;;;;;18.80;13.85;;;;;;;19.39;100.00;97782.63;1682349;83;28120;-89
2022/08/14 04:08:52;;;;;;;21.45;13.40;;;;;;;19.38;100.00;97779.16;1685110;81;28143;-88
2022/08/14 04:11:21;;;;;;;20.95;12.95;;;;;;;19.42;100.00;97776.45;1740830;80;28075;-89
2022/08/14 04:13:48;;;;;;;18.23;13.03;;;;;;;19.52;100.00;97782.90;1729075;81;28082;-89
2022/08/14 04:16:21;;;;;;;19.30;13.72;;;;;;;19.63;100.00;97779.81;1743951;80;28090;-89
2022/08/14 04:18:51;;;;;;;17.87;13.13;;;;;;;19.69;100.00;97772.96;1737950;80;28109;-89
2022/08/14 04:21:22;;;;;;;20.08;13.15;;;;;;;19.70;100.00;97771.43;1743385;80;28007;-90
2022/08/14 04:23:48;;;;;;;18.45;13.88;;;;;;;19.76;100.00;97774.70;1739204;80;28478;-89
2022/08/14 04:26:18;;;;;;;17.98;13.83;;;;;;;19.79;100.00;97771.70;1743453;80;28062;-89
2022/08/14 04:28:45;;;;;;;21.27;14.05;;;;;;;19.73;100.00;97776.40;1732794;80;28101;-88
2022/08/14 04:31:12;;;;;;;20.25;14.00;;;;;;;19.69;100.00;97777.77;1735130;81;28061;-89
2022/08/14 04:33:38;;;;;;;17.12;12.85;;;;;;;19.67;100.00;97777.61;1733133;81;28058;-89
2022/08/14 04:36:11;;;;;;;19.85;13.58;;;;;;;19.72;100.00;97781.88;1726781;80;28018;-89
2022/08/14 04:44:03;;;;;;;23.42;13.80;;;;;;;19.86;100.00;97771.27;1653458;83;28244;-86
2022/08/14 04:46:30;;;;;;;20.80;14.65;;;;;;;19.91;100.00;97776.86;1670206;83;28028;-87
2022/08/14 04:48:56;;;;;;;18.70;13.08;;;;;;;19.84;100.00;97773.80;1723802;81;28261;-88
2022/08/14 04:51:26;;;;;;;17.65;13.08;;;;;;;19.78;100.00;97768.71;1719639;80;28069;-88
2022/08/14 04:54:01;;;;;;;19.10;14.18;;;;;;;19.71;100.00;97768.28;1735540;80;28150;-89
2022/08/14 04:56:27;;;;;;;20.10;14.05;;;;;;;19.64;100.00;97769.00;1738003;80;28118;-88
2022/08/14 04:59:00;;;;;;;18.37;12.78;;;;;;;19.55;100.00;97770.58;1739010;80;28258;-86
2022/08/14 05:01:26;;;;;;;24.07;13.80;;;;;;;19.56;100.00;97764.28;1742791;80;28094;-89
2022/08/14 05:03:56;;;;;;;17.45;13.95;;;;;;;19.67;100.00;97763.84;1736102;80;28078;-88
2022/08/14 05:06:24;;;;;;;18.52;13.95;;;;;;;19.66;100.00;97764.84;1734132;80;28104;-86
2022/08/14 05:08:50;;;;;;;19.07;14.40;;;;;;;19.60;100.00;97761.08;1715345;80;28112;-88
2022/08/14 05:11:18;;;;;;;19.62;13.98;;;;;;;19.51;100.00;97766.15;1731508;80;28204;-88
2022/08/14 05:13:45;;;;;;;18.52;14.10;;;;;;;19.48;100.00;97762.51;1734030;80;28346;-88
2022/08/14 05:16:12;;;;;;;19.07;15.05;;;;;;;19.42;100.00;97761.86;1723484;81;28084;-89
2022/08/14 05:18:39;;;;;;;19.95;14.63;;;;;;;19.48;100.00;97763.84;1725503;80;28002;-88
2022/08/14 05:21:12;;;;;;;18.92;14.28;;;;;;;19.46;100.00;97765.86;1740057;80;28222;-89
2022/08/14 05:23:39;;;;;;;14.95;10.40;;;;;;;19.55;100.00;97764.77;1738915;80;28125;-89
2022/08/14 05:26:11;;;;;;;21.80;13.80;;;;;;;19.55;100.00;97755.98;1728323;80;28090;-88
2022/08/14 05:28:34;;;;;;;20.00;14.18;;;;;;;19.54;100.00;97752.50;1727154;80;28022;-88
2022/08/14 05:31:05;;;;;;;20.40;14.15;;;;;;;19.52;100.00;97748.40;1736110;80;28081;-87
2022/08/14 05:33:33;;;;;;;22.15;15.15;;;;;;;19.49;100.00;97748.73;1736449;80;28122;-88
2022/08/14 05:36:08;;;;;;;23.90;15.65;;;;;;;19.56;100.00;97753.66;1729065;81;28089;-89
2022/08/14 05:38:38;;;;;;;21.75;15.15;;;;;;;19.54;100.00;97744.54;1745989;80;28145;-86
2022/08/14 05:41:17;;;;;;;26.65;16.15;;;;;;;19.50;100.00;97749.06;1723634;80;28317;-89
2022/08/14 05:43:49;;;;;;;22.87;14.85;;;;;;;19.44;100.00;97746.59;1741038;80;28067;-89
2022/08/14 05:46:22;;;;;;;22.87;14.93;;;;;;;19.44;100.00;97747.09;1733437;80;28075;-89
2022/08/14 05:48:53;;;;;;;20.90;14.53;;;;;;;19.43;100.00;97751.58;1739485;80;28265;-89
2022/08/14 05:51:19;;;;;;;25.27;15.65;;;;;;;19.41;100.00;97748.30;1742992;80;28048;-90
2022/08/14 05:53:46;;;;;;;23.62;15.35;;;;;;;19.35;100.00;97743.70;1725767;81;28028;-87
2022/08/14 05:56:12;;;;;;;21.70;15.32;;;;;;;19.35;100.00;97744.20;1736636;80;28144;-88
2022/08/14 05:58:37;;;;;;;24.30;15.10;;;;;;;19.39;100.00;97746.31;1711920;81;28073;-86
2022/08/14 06:01:17;;;;;;;22.73;14.58;;;;;;;19.44;100.00;97745.27;1721031;80;28143;-86
2022/08/14 06:03:43;;;;;;;23.70;15.65;;;;;;;19.52;100.00;97747.07;1730374;80;28089;-88
2022/08/14 06:06:10;;;;;;;22.20;15.00;;;;;;;19.47;100.00;97749.44;1729663;80;28113;-88
2022/08/14 06:08:38;;;;;;;24.75;15.85;;;;;;;19.44;100.00;97753.23;1671820;83;28077;-88
2022/08/14 06:11:07;;;;;;;22.82;15.58;;;;;;;19.41;100.00;97748.30;1741648;80;28221;-88
2022/08/14 06:13:40;;;;;;;21.33;15.00;;;;;;;19.35;100.00;97734.41;1724682;80;28120;-88
2022/08/14 06:16:06;;;;;;;24.37;15.88;;;;;;;19.47;100.00;97740.98;1744226;80;28095;-89
2022/08/14 06:18:35;;;;;;;28.20;15.98;;;;;;;19.54;100.00;97745.87;1716676;81;37429;-89
2022/08/14 06:21:03;;;;;;;24.35;15.58;;;;;;;19.61;100.00;97738.02;1736152;80;28252;-86
2022/08/14 06:23:29;;;;;;;23.10;15.88;;;;;;;19.66;100.00;97737.47;1739964;80;28097;-88
2022/08/14 06:25:55;;;;;;;24.82;15.75;;;;;;;19.77;100.00;97735.70;1735885;80;28039;-87
2022/08/14 06:28:24;;;;;;;22.73;14.75;;;;;;;19.86;100.00;97735.92;1717738;81;28104;-90
2022/08/14 06:30:51;;;;;;;25.45;15.83;;;;;;;19.90;100.00;97735.40;1736444;80;28070;-88
2022/08/14 06:33:19;;;;;;;26.10;16.25;;;;;;;19.80;100.00;97731.36;1736590;80;28097;-89
2022/08/14 06:35:47;;;;;;;22.95;14.43;;;;;;;19.79;100.00;97733.70;1736922;80;28075;-87
2022/08/14 06:38:13;;;;;;;24.60;15.85;;;;;;;19.80;100.00;97738.00;1733028;81;28004;-86
2022/08/14 06:40:40;;;;;;;25.45;16.60;;;;;;;19.77;100.00;97734.37;1722455;80;28146;-89
2022/08/14 06:43:11;;;;;;;27.55;16.70;;;;;;;19.71;100.00;97737.75;1727044;80;28183;-87
2022/08/14 06:45:40;;;;;;;26.10;16.13;;;;;;;19.65;100.00;97737.97;1741182;80;28004;-88
2022/08/14 06:48:23;;;;;;;24.45;16.27;;;;;;;19.60;100.00;97733.20;1739689;80;28152;-89
2022/08/14 06:50:52;;;;;;;24.20;15.80;;;;;;;19.66;100.00;97733.48;1732113;81;28132;-90
2022/08/14 06:53:19;;;;;;;27.00;17.65;;;;;;;19.73;100.00;97729.94;1725840;80;27999;-90
2022/08/14 06:55:51;;;;;;;26.68;16.45;;;;;;;19.75;100.00;97732.38;1728422;80;28236;-88
2022/08/14 06:58:24;;;;;;;25.40;16.25;;;;;;;19.76;100.00;97732.71;1727871;80;28176;-89
2022/08/14 07:06:19;;;;;;;27.13;16.20;;;;;;;19.86;100.00;97735.92;1742802;80;28010;-89
2022/08/14 07:08:49;;;;;;;26.23;15.50;;;;;;;19.91;100.00;97740.20;1724921;80;43379;-86
2022/08/14 07:11:15;;;;;;;26.52;16.05;;;;;;;19.90;100.00;97739.88;1733270;80;28082;-89
2022/08/14 07:13:43;;;;;;;22.37;14.13;;;;;;;19.86;100.00;97737.25;1740909;80;28074;-88
2022/08/14 07:16:11;;;;;;;23.10;14.30;;;;;;;19.81;100.00;97739.13;1738902;81;28193;-89
2022/08/14 07:18:38;;;;;;;23.83;14.30;;;;;;;19.79;100.00;97731.86;1733451;80;28054;-90
2022/08/14 07:21:05;;;;;;;24.75;15.50;;;;;;;19.82;100.00;97728.00;1727646;80;28095;-89
2022/08/14 07:23:37;;;;;;;28.50;17.42;;;;;;;19.81;100.00;97735.64;1732715;80;28099;-87
2022/08/14 07:26:13;;;;;;;;;;;;;;;19.82;100.00;97737.30;1730411;80;24426;-88
2022/08/14 07:28:38;;;;;;;;;;;;;;;19.77;100.00;97732.54;1703053;82;22156;-87
2022/08/14 07:31:09;;;;;;;23.05;14.87;;;;;;;19.74;100.00;97733.41;1685610;81;26634;-88
2022/08/14 07:33:39;;;;;;;22.87;15.00;;;;;;;19.74;100.00;97728.94;1682225;81;28285;-89
2022/08/14 07:36:10;;;;;;;24.70;15.80;;;;;;;19.73;100.00;97731.27;1740905;80;28095;-89
2022/08/14 07:38:36;;;;;;;;;;;;;;;19.73;100.00;97730.44;1751230;80;28089;-89
2022/08/14 07:41:04;;;;;;;25.60;16.12;;;;;;;19.84;100.00;97736.63;1746807;80;44083;-89
2022/08/14 07:43:30;;;;;;;24.98;15.93;;;;;;;19.86;100.00;97735.42;1733703;80;28074;-89
2022/08/14 07:46:04;;;;;;;22.85;14.38;;;;;;;19.92;100.00;97740.00;1736973;80;28183;-89
2022/08/14 07:48:30;;;;;;;25.72;15.53;;;;;;;19.91;100.00;97738.88;1741545;80;28075;-87
2022/08/14 07:50:56;;;;;;;24.55;15.88;;;;;;;19.86;100.00;97740.73;1731485;80;28119;-89
2022/08/14 07:53:23;;;;;;;24.75;16.00;;;;;;;19.86;100.00;97738.08;1722777;81;28008;-87
2022/08/14 07:55:49;;;;;;;23.98;15.70;;;;;;;19.87;100.00;97737.57;1722987;81;28049;-86
2022/08/14 07:58:19;;;;;;;22.27;15.23;;;;;;;19.90;100.00;97741.20;1717875;81;28106;-87
2022/08/14 08:00:49;;;;;;;23.87;15.60;;;;;;;19.87;100.00;97736.25;1728701;80;28019;-87
2022/08/14 08:03:16;;;;;;;22.90;14.47;;;;;;;19.83;100.00;97734.97;1730635;80;28454;-89
2022/08/14 08:05:44;;;;;;;22.05;13.75;;;;;;;19.83;100.00;97731.81;1729022;80;28111;-89
2022/08/14 08:08:11;;;;;;;19.25;12.58;;;;;;;19.86;100.00;97724.80;1719622;82;28096;-89
2022/08/14 08:10:40;;;;;;;22.00;13.30;;;;;;;19.86;100.00;97725.30;1727213;80;28111;-88
2022/08/14 08:13:09;;;;;;;20.50;12.53;;;;;;;19.90;100.00;97722.12;1707647;81;28219;-88
2022/08/14 08:15:42;;;;;;;19.77;12.58;;;;;;;20.04;100.00;97723.94;1729384;80;28078;-88
2022/08/14 08:18:10;;;;;;;20.40;13.48;;;;;;;20.26;100.00;97722.17;1735118;80;28112;-87
2022/08/14 08:20:48;;;;;;;19.75;13.00;;;;;;;20.42;100.00;97720.67;1747893;80;28191;-88
2022/08/14 08:23:18;;;;;;;17.60;11.50;;;;;;;20.48;100.00;97715.61;1736532;80;28131;-88
2022/08/14 08:25:47;;;;;;;16.12;11.25;;;;;;;20.51;100.00;97721.91;1733997;80;28213;-88
2022/08/14 08:28:19;;;;;;;13.65;10.53;;;;;;;20.51;100.00;97716.05;1732248;80;28101;-88
2022/08/14 08:30:51;;;;;;;17.17;11.63;;;;;;;20.57;100.00;97720.63;1725625;80;28104;-88
2022/08/14 08:33:19;;;;;;;13.08;9.75;;;;;;;20.67;100.00;97719.02;1713768;81;28167;-88
2022/08/14 08:35:46;;;;;;;11.65;9.05;;;;;;;20.73;100.00;97715.61;1731362;80;27992;-88
2022/08/14 08:38:16;;;;;;;11.38;9.15;;;;;;;20.72;100.00;97720.10;1720946;81;28051;-87
2022/08/14 08:40:45;;;;;;;;;;;;;;;20.78;100.00;97716.66;1710949;81;28067;-87
2022/08/14 08:43:21;;;;;;;17.45;9.48;;;;;;;20.95;100.00;97716.45;1741990;80;22055;-88
2022/08/14 08:45:56;;;;;;;13.58;9.43;;;;;;;21.09;100.00;97708.39;1659104;83;28111;-89
2022/08/14 08:48:30;;;;;;;13.62;9.83;;;;;;;21.22;100.00;97710.38;1705740;82;28154;-89
2022/08/14 08:51:00;;;;;;;12.03;8.73;;;;;;;21.35;100.00;97713.64;1666391;83;28110;-89
2022/08/14 08:53:34;;;;;;;13.53;8.33;;;;;;;21.29;100.00;97714.73;1658841;84;28277;-89
2022/08/14 08:56:01;;;;;;;11.70;9.63;;;;;;;21.17;100.00;97714.92;1689493;83;28049;-89
2022/08/14 08:58:28;;;;;;;12.98;8.73;;;;;;;21.10;100.00;97708.71;1686172;82;28252;-89
2022/08/14 09:01:03;;;;;;;12.25;8.70;;;;;;;21.11;100.00;97714.32;1694734;81;28265;-89
2022/08/14 09:03:27;;;;;;;10.40;8.68;;;;;;;21.16;100.00;97709.81;1701826;82;28179;-89
2022/08/14 09:06:02;;;;;;;10.88;8.33;;;;;;;21.29;100.00;97717.89;1710927;82;28045;-89
2022/08/14 09:08:30;;;;;;;11.85;7.87;;;;;;;21.32;100.00;97712.71;1689041;81;28024;-89
2022/08/14 09:10:58;;;;;;;10.32;7.97;;;;;;;21.35;100.00;97709.65;1697949;82;28114;-87
2022/08/14 09:13:31;;;;;;;12.30;8.95;;;;;;;21.44;100.00;97711.17;1691164;82;28125;-87
2022/08/14 09:16:00;;;;;;;10.20;8.40;;;;;;;21.52;100.00;97711.02;1701644;82;28139;-87
2022/08/14 09:18:26;;;;;;;11.90;8.38;;;;;;;21.59;100.00;97709.23;1695822;82;28257;-88
2022/08/14 09:20:55;;;;;;;12.07;9.10;;;;;;;21.74;100.00;97708.61;1728578;80;28172;-88
2022/08/14 09:23:21;;;;;;;12.10;8.78;;;;;;;21.92;100.00;97704.95;1735609;80;28025;-87
2022/08/14 09:25:51;;;;;;;10.80;8.48;;;;;;;22.04;100.00;97707.87;1737038;80;28086;-88
2022/08/14 09:28:19;;;;;;;10.13;7.97;;;;;;;22.16;100.00;97702.82;1727270;80;28138;-89
2022/08/14 09:30:48;;;;;;;9.68;8.20;;;;;;;22.22;100.00;97698.03;1725694;80;28149;-88
2022/08/14 09:33:30;;;;;;;11.28;7.00;;;;;;;22.34;100.00;97694.61;1737457;80;28616;-90
2022/08/14 09:36:09;;;;;;;9.55;7.33;;;;;;;22.39;100.00;97700.16;1733058;80;28153;-88
2022/08/14 09:39:02;;;;;;;9.40;7.37;;;;;;;22.39;100.00;97699.34;1735259;80;28054;-89
2022/08/14 09:41:50;;;;;;;8.53;7.25;;;;;;;22.44;100.00;97695.56;1718700;80;28074;-90
2022/08/14 09:44:42;;;;;;;10.93;7.67;;;;;;;22.58;100.00;97699.93;1736146;80;28098;-88
2022/08/14 09:47:09;;;;;;;11.30;7.30;;;;;;;22.72;100.00;97704.30;1699484;82;28120;-89
2022/08/14 09:49:41;;;;;;;10.88;7.30;;;;;;;22.74;100.00;97703.59;1731833;80;28071;-88
2022/08/14 09:52:11;;;;;;;8.60;6.80;;;;;;;22.72;100.00;97706.97;1735693;80;28271;-90
2022/08/14 09:54:41;;;;;;;8.70;7.40;;;;;;;22.75;100.00;97705.22;1733879;80;28024;-88
2022/08/14 09:57:13;;;;;;;11.15;8.48;;;;;;;22.71;100.00;97695.98;1740309;80;28132;-88
2022/08/14 09:59:42;;;;;;;9.38;7.58;;;;;;;22.74;100.00;97702.77;1739065;80;28095;-88
2022/08/14 10:02:30;;;;;;;9.75;7.75;;;;;;;22.86;100.00;97697.95;1737274;79;28209;-89
2022/08/14 10:05:10;;;;;;;9.85;7.62;;;;;;;22.98;100.00;97694.69;1741264;80;28181;-88
2022/08/14 10:07:50;;;;;;;8.85;7.42;;;;;;;23.07;100.00;97696.16;1719243;80;28276;-90
2022/08/14 10:10:37;;;;;;;9.73;7.50;;;;;;;23.12;100.00;97697.19;1706104;80;28096;-89
2022/08/14 10:13:06;;;;;;;9.55;7.90;;;;;;;23.21;100.00;97699.13;1734299;80;28078;-88
2022/08/14 10:15:40;;;;;;;10.70;8.43;;;;;;;23.18;100.00;97694.22;1748423;80;28071;-88
2022/08/14 10:18:13;;;;;;;12.30;8.10;;;;;;;23.22;100.00;97692.27;1729172;80;27999;-88
2022/08/14 10:20:43;;;;;;;8.63;7.40;;;;;;;23.29;100.00;97692.27;1726528;80;28011;-87
2022/08/14 10:23:11;;;;;;;9.15;7.28;;;;;;;23.43;100.00;97693.07;1724666;81;28089;-90
2022/08/14 10:25:54;;;;;;;11.57;7.85;;;;;;;23.54;100.00;97693.30;1704486;81;28021;-90
2022/08/14 10:28:26;;;;;;;11.10;8.25;;;;;;;23.63;100.00;97691.22;1730264;80;28028;-90
2022/08/14 10:30:53;;;;;;;13.08;8.30;;;;;;;23.69;100.00;97689.89;1713167;81;28098;-90
2022/08/14 10:33:32;;;;;;;10.90;7.78;;;;;;;23.73;100.00;97687.09;1692225;82;28071;-90
2022/08/14 10:36:00;;;;;;;11.50;7.87;;;;;;;23.70;100.00;97691.53;1678713;83;28246;-89
2022/08/14 10:38:36;;;;;;;9.53;7.35;;;;;;;23.58;100.00;97689.18;1688697;83;28221;-89
2022/08/14 10:41:15;;;;;;;9.93;7.12;;;;;;;23.47;100.00;97689.80;1657331;83;28281;-88
2022/08/14 10:43:44;;;;;;;9.45;7.28;;;;;;;23.49;100.00;97689.61;1687496;83;28116;-89
2022/08/14 10:46:16;;;;;;;9.55;7.25;;;;;;;23.58;100.00;97687.02;1690599;81;28162;-87
2022/08/14 10:49:01;;;;;;;9.43;7.17;;;;;;;23.65;100.00;97688.66;1733098;80;28034;-87
2022/08/14 10:51:39;;;;;;;9.45;7.05;;;;;;;23.65;100.00;97691.84;1736209;80;27999;-89
2022/08/14 10:54:08;;;;;;;10.65;7.80;;;;;;;23.70;100.00;97694.20;1746215;80;28173;-87
2022/08/14 10:56:34;;;;;;;9.63;7.22;;;;;;;23.76;100.00;97686.70;1741858;80;28196;-87
2022/08/14 10:59:07;;;;;;;9.83;7.25;;;;;;;23.83;100.00;97689.88;1732108;80;28142;-90
2022/08/14 11:01:37;;;;;;;8.50;6.83;;;;;;;23.71;100.00;97687.84;1736087;80;28228;-87
2022/08/14 11:04:04;;;;;;;10.28;7.37;;;;;;;23.68;100.00;97690.91;1738687;80;28212;-87
2022/08/14 11:06:32;;;;;;;8.88;6.12;;;;;;;23.65;100.00;97686.51;1694141;81;28038;-87
2022/08/14 11:08:58;;;;;;;8.10;6.33;;;;;;;23.74;100.00;97678.56;1698681;82;28195;-86
2022/08/14 11:11:28;;;;;;;8.45;6.53;;;;;;;23.88;100.00;97674.85;1672320;83;28135;-87
2022/08/14 11:13:56;;;;;;;9.80;6.85;;;;;;;23.98;100.00;97677.91;1696190;82;28156;-87
2022/08/14 11:16:25;;;;;;;7.83;5.65;;;;;;;24.08;100.00;97678.28;1701078;82;28076;-89
2022/08/14 11:21:41;;;;;;;7.33;5.62;;;;;;;24.18;100.00;97668.50;1693184;81;28140;-88
2022/08/14 11:24:11;;;;;;;7.30;5.75;;;;;;;24.09;100.00;97673.75;1698939;82;28131;-89
2022/08/14 11:26:39;;;;;;;7.70;5.62;;;;;;;24.15;100.00;97665.72;1710255;82;28109;-88
2022/08/14 11:29:06;;;;;;;7.50;5.62;;;;;;;24.24;100.00;97662.81;1687986;83;28021;-87
2022/08/14 11:31:36;;;;;;;6.40;5.47;;;;;;;24.31;100.00;97666.30;1702634;82;28118;-87
2022/08/14 11:34:02;;;;;;;8.63;6.00;;;;;;;24.24;100.00;97662.81;1707134;81;28205;-87
2022/08/14 11:36:28;;;;;;;9.25;6.12;;;;;;;24.14;100.00;97666.74;1718711;81;28114;-87
2022/08/14 11:38:56;;;;;;;7.80;6.03;;;;;;;24.26;100.00;97657.58;1726953;81;28231;-89
2022/08/14 11:41:25;;;;;;;7.47;5.92;;;;;;;24.48;100.00;97654.89;1741030;80;28137;-88
2022/08/14 11:43:53;;;;;;;9.48;5.90;;;;;;;24.58;100.00;97651.23;1742951;80;28082;-87
2022/08/14 11:46:20;;;;;;;7.42;5.45;;;;;;;24.67;100.00;97654.98;1735119;80;28124;-88
2022/08/14 11:48:50;;;;;;;8.75;6.97;;;;;;;24.75;100.00;97658.23;1737360;81;28002;-87